Time;durP1;ratioP1;P1;durP2;ratioP2;P2;SDS_P1;SDS_P2;PMS_P1;PMS_P2;Temp;Humidity;BMP_temperature;BMP_pressure;BME280_temperature;BME280_humidity;BME280_pressure;Samples;Min_cycle;Max_cycle;Signal;HPM_P1;HPM_P2
2023/07/28 00:00:08;;;;;;;4.47;0.40;;;;;;;16.14;100.00;99517.13;4994287;28;20026;-90
2023/07/28 00:02:33;;;;;;;2.08;0.50;;;;;;;16.04;100.00;99525.00;4994184;28;20106;-90
2023/07/28 00:04:59;;;;;;;0.77;0.32;;;;;;;15.88;100.00;99515.22;4993445;28;20117;-90
2023/07/28 00:07:24;;;;;;;1.80;0.45;;;;;;;15.90;100.00;99517.66;4993956;28;20385;-90
2023/07/28 00:09:49;;;;;;;4.47;0.63;;;;;;;16.01;100.00;99520.91;4994093;28;20049;-90
2023/07/28 00:12:15;;;;;;;2.17;0.70;;;;;;;15.87;100.00;99520.56;4994163;28;20503;-90
2023/07/28 00:14:40;;;;;;;1.17;0.50;;;;;;;15.89;100.00;99524.66;4993886;28;20488;-90
2023/07/28 00:17:05;;;;;;;1.77;0.60;;;;;;;15.79;100.00;99524.72;4993946;28;20389;-90
2023/07/28 00:19:31;;;;;;;1.67;1.00;;;;;;;15.82;100.00;99524.41;4993899;28;20057;-90
2023/07/28 00:21:56;;;;;;;3.08;0.70;;;;;;;15.75;100.00;99528.59;4993920;28;20022;-90
2023/07/28 00:24:22;;;;;;;5.82;0.80;;;;;;;15.81;100.00;99525.38;4993779;28;20411;-90
2023/07/28 00:26:47;;;;;;;3.67;1.58;;;;;;;16.03;100.00;99528.56;4992839;28;20376;-90
2023/07/28 00:29:12;;;;;;;1.77;0.98;;;;;;;15.97;100.00;99527.38;4992026;28;20553;-89
2023/07/28 00:31:38;;;;;;;1.05;0.63;;;;;;;15.85;100.00;99528.53;4993497;28;20499;-90
2023/07/28 00:34:03;;;;;;;1.90;0.75;;;;;;;15.89;100.00;99534.25;4993259;28;20026;-90
2023/07/28 00:36:30;;;;;;;1.48;0.60;;;;;;;15.83;100.00;99528.66;4975980;28;20034;-90
2023/07/28 00:38:55;;;;;;;0.50;0.40;;;;;;;15.75;100.00;99523.38;4993300;28;20073;-89
2023/07/28 00:41:20;;;;;;;2.70;0.70;;;;;;;15.87;100.00;99530.97;4993506;28;20030;-90
2023/07/28 00:43:46;;;;;;;1.38;0.57;;;;;;;15.76;100.00;99517.19;4992437;28;20029;-89
2023/07/28 00:46:12;;;;;;;0.77;0.50;;;;;;;15.75;100.00;99520.78;4975208;28;20035;-89
2023/07/28 00:48:40;;;;;;;1.67;0.70;;;;;;;15.63;100.00;99522.72;4992681;28;20142;-89
2023/07/28 00:51:06;;;;;;;0.90;0.63;;;;;;;15.80;100.00;99518.56;4992693;28;20037;-90
2023/07/28 00:53:32;;;;;;;0.50;0.47;;;;;;;15.70;100.00;99511.75;4992264;28;20026;-90
2023/07/28 00:55:57;;;;;;;4.90;0.68;;;;;;;15.63;100.00;99516.69;4992591;28;20040;-90
2023/07/28 00:58:23;;;;;;;0.75;0.65;;;;;;;15.56;100.00;99516.44;4992527;28;20105;-90
2023/07/28 01:00:49;;;;;;;2.78;0.68;;;;;;;15.58;100.00;99509.31;4992377;28;20105;-90
2023/07/28 01:03:15;;;;;;;0.85;0.50;;;;;;;15.55;100.00;99508.78;4992945;28;20026;-90
2023/07/28 01:05:48;;;;;;;2.22;0.40;;;;;;;15.64;100.00;99502.72;4975475;28;20435;-90
2023/07/28 01:08:27;;;;;;;0.75;0.40;;;;;;;15.62;100.00;99507.22;4992675;28;20022;-90
2023/07/28 01:10:52;;;;;;;0.57;0.40;;;;;;;15.67;100.00;99502.41;4993035;28;20030;-90
2023/07/28 01:13:17;;;;;;;1.35;0.43;;;;;;;15.73;100.00;99504.50;4990807;28;20022;-90
2023/07/28 01:15:43;;;;;;;1.00;0.55;;;;;;;15.77;100.00;99498.00;4992620;28;20116;-89
2023/07/28 01:18:08;;;;;;;0.68;0.30;;;;;;;15.72;100.00;99497.63;4992402;28;20050;-89
2023/07/28 01:20:36;;;;;;;0.22;0.13;;;;;;;15.67;100.00;99499.00;4975341;28;20153;-90
2023/07/28 01:23:26;;;;;;;0.63;0.20;;;;;;;15.73;100.00;99499.28;4992656;28;20030;-89
2023/07/28 01:26:11;;;;;;;1.25;0.20;;;;;;;15.68;100.00;99504.06;4992463;28;20478;-89
2023/07/28 01:28:39;;;;;;;0.47;0.30;;;;;;;15.66;100.00;99500.78;4991498;28;20080;-89
2023/07/28 01:31:06;;;;;;;0.57;0.20;;;;;;;15.70;100.00;99502.16;4992623;28;20492;-89
2023/07/28 01:33:32;;;;;;;0.57;0.10;;;;;;;15.66;100.00;99505.19;4991579;28;20030;-89
2023/07/28 01:35:58;;;;;;;0.75;0.13;;;;;;;15.67;100.00;99504.22;4992319;28;20044;-90
2023/07/28 01:38:24;;;;;;;1.02;0.30;;;;;;;15.58;100.00;99505.88;4993146;28;20242;-90
2023/07/28 01:40:49;;;;;;;0.60;0.30;;;;;;;15.52;100.00;99503.84;4992259;28;20201;-90
2023/07/28 01:43:15;;;;;;;0.13;0.10;;;;;;;15.60;100.00;99511.75;4992606;28;20074;-90
2023/07/28 01:45:40;;;;;;;0.43;0.20;;;;;;;15.55;100.00;99513.97;4992467;28;20469;-90
2023/07/28 01:48:05;;;;;;;0.28;0.10;;;;;;;15.47;100.00;99508.66;4992173;28;20507;-90
2023/07/28 01:50:31;;;;;;;0.43;0.20;;;;;;;15.48;100.00;99512.91;4992676;28;20037;-90
2023/07/28 01:52:56;;;;;;;0.65;0.30;;;;;;;15.51;100.00;99512.59;4975044;28;20022;-89
2023/07/28 01:55:22;;;;;;;0.88;0.38;;;;;;;15.48;100.00;99510.28;4991953;28;20436;-90
2023/07/28 01:57:56;;;;;;;0.40;0.28;;;;;;;15.56;100.00;99520.81;4992461;28;20531;-89
2023/07/28 02:00:22;;;;;;;0.25;0.10;;;;;;;15.38;100.00;99512.94;4992687;28;20042;-89
2023/07/28 02:02:48;;;;;;;2.50;0.43;;;;;;;15.40;100.00;99518.81;4992234;28;20026;-89
2023/07/28 02:05:13;;;;;;;1.20;0.65;;;;;;;15.41;100.00;99518.69;4992013;28;20109;-90
2023/07/28 02:07:39;;;;;;;0.55;0.50;;;;;;;15.55;100.00;99513.97;4992052;28;20054;-90
2023/07/28 02:10:05;;;;;;;0.88;0.40;;;;;;;15.49;100.00;99511.94;4996840;28;20022;-90
2023/07/28 02:12:30;;;;;;;0.50;0.35;;;;;;;15.39;100.00;99506.78;5002845;28;20427;-89
2023/07/28 02:14:56;;;;;;;1.95;0.98;;;;;;;15.44;100.00;99506.38;4992062;28;20025;-90
2023/07/28 02:17:21;;;;;;;1.45;0.60;;;;;;;15.43;100.00;99521.13;4971156;28;20065;-89
2023/07/28 02:19:47;;;;;;;1.00;0.50;;;;;;;15.44;100.00;99516.75;4972662;28;20026;-89
2023/07/28 02:22:12;;;;;;;1.30;0.50;;;;;;;15.45;100.00;99508.00;4972427;28;20023;-89
2023/07/28 02:24:38;;;;;;;1.30;0.80;;;;;;;15.46;100.00;99512.22;4989944;28;20030;-90
2023/07/28 02:27:03;;;;;;;2.35;0.60;;;;;;;15.49;100.00;99501.56;4991560;28;20061;-90
2023/07/28 02:29:29;;;;;;;2.05;0.95;;;;;;;15.46;100.00;99500.06;4994211;28;20037;-90
2023/07/28 02:31:54;;;;;;;1.00;0.85;;;;;;;15.49;100.00;99498.94;4995055;28;20033;-91
2023/07/28 02:34:19;;;;;;;0.70;0.60;;;;;;;15.54;100.00;99507.13;4995577;28;20065;-90
2023/07/28 02:36:45;;;;;;;1.35;0.70;;;;;;;15.49;100.00;99502.38;4994891;28;20034;-90
2023/07/28 02:39:10;;;;;;;1.45;0.50;;;;;;;15.44;100.00;99507.19;4995612;28;20061;-90
2023/07/28 02:41:35;;;;;;;2.65;0.50;;;;;;;15.50;100.00;99508.38;4994619;28;20030;-90
2023/07/28 02:44:01;;;;;;;0.80;0.20;;;;;;;15.66;100.00;99510.38;4995446;28;20046;-90
2023/07/28 02:46:26;;;;;;;1.88;0.40;;;;;;;15.54;100.00;99509.75;4994954;28;20053;-90
2023/07/28 02:48:51;;;;;;;0.77;0.40;;;;;;;15.44;100.00;99508.97;4975605;28;20042;-91
2023/07/28 02:51:17;;;;;;;1.55;0.20;;;;;;;15.52;100.00;99509.06;4992905;28;20521;-90
2023/07/28 02:53:42;;;;;;;0.45;0.10;;;;;;;15.40;100.00;99506.63;5006102;28;20069;-90
2023/07/28 02:56:08;;;;;;;0.63;0.30;;;;;;;15.33;100.00;99502.94;4995032;28;20054;-90
2023/07/28 02:58:33;;;;;;;0.68;0.30;;;;;;;15.34;100.00;99503.78;4995309;28;20121;-89
2023/07/28 03:00:58;;;;;;;2.35;0.38;;;;;;;15.43;100.00;99492.53;4994870;28;20033;-89
2023/07/28 03:03:24;;;;;;;3.08;0.30;;;;;;;15.38;100.00;99486.94;5001278;28;20068;-89
2023/07/28 03:05:52;;;;;;;1.88;0.30;;;;;;;15.33;100.00;99497.75;5001494;28;20027;-88
2023/07/28 03:08:17;;;;;;;1.10;0.70;;;;;;;15.32;100.00;99498.72;4994625;28;20033;-88
2023/07/28 03:10:43;;;;;;;1.48;0.25;;;;;;;15.39;100.00;99489.41;4994647;28;20381;-89
2023/07/28 03:13:08;;;;;;;0.55;0.25;;;;;;;15.33;100.00;99492.56;4993641;28;20050;-88
2023/07/28 03:15:33;;;;;;;0.73;0.22;;;;;;;15.31;100.00;99491.06;4995095;28;20022;-89
2023/07/28 03:17:59;;;;;;;0.90;0.20;;;;;;;15.39;100.00;99493.78;4995134;28;20073;-88
2023/07/28 03:20:24;;;;;;;0.30;0.15;;;;;;;15.33;100.00;99505.56;4994528;28;20470;-88
2023/07/28 03:22:49;;;;;;;0.15;0.13;;;;;;;15.30;100.00;99502.44;4994734;28;20519;-88
2023/07/28 03:25:15;;;;;;;0.00;0.00;;;;;;;15.36;100.00;99513.09;4994557;28;20056;-88
2023/07/28 03:27:40;;;;;;;0.52;0.20;;;;;;;15.29;100.00;99514.63;4994685;28;20472;-89
2023/07/28 03:30:09;;;;;;;1.17;0.20;;;;;;;15.35;100.00;99524.44;4994688;28;20022;-89
2023/07/28 03:32:34;;;;;;;0.55;0.30;;;;;;;15.49;100.00;99519.75;4993308;28;20500;-89
2023/07/28 03:34:59;;;;;;;1.27;0.10;;;;;;;15.41;100.00;99523.88;4994238;28;20029;-89
2023/07/28 03:37:25;;;;;;;0.50;0.15;;;;;;;15.37;100.00;99519.09;4994240;28;20041;-89
2023/07/28 03:39:50;;;;;;;0.10;0.10;;;;;;;15.34;100.00;99515.00;4993434;28;20046;-89
2023/07/28 03:42:15;;;;;;;0.17;0.10;;;;;;;15.33;100.00;99517.72;4992938;28;20022;-89
2023/07/28 03:44:41;;;;;;;0.63;0.20;;;;;;;15.27;100.00;99513.13;4994450;28;20041;-89
2023/07/28 03:47:07;;;;;;;0.45;0.20;;;;;;;15.23;100.00;99509.97;4994042;28;20061;-89
2023/07/28 03:49:32;;;;;;;3.17;0.38;;;;;;;15.27;100.00;99511.31;4994399;28;20053;-89
2023/07/28 03:51:58;;;;;;;3.03;0.30;;;;;;;15.26;100.00;99511.47;4993784;28;20049;-89
2023/07/28 03:54:23;;;;;;;0.40;0.20;;;;;;;15.26;100.00;99514.88;4993189;28;20030;-89
2023/07/28 03:56:49;;;;;;;0.20;0.20;;;;;;;15.38;100.00;99513.75;4993631;28;20034;-89
2023/07/28 03:59:14;;;;;;;0.10;0.10;;;;;;;15.34;100.00;99514.19;4994181;28;20141;-88
2023/07/28 04:01:40;;;;;;;0.20;0.20;;;;;;;15.31;100.00;99523.06;4992705;28;20019;-89
2023/07/28 04:04:05;;;;;;;0.82;0.32;;;;;;;15.33;100.00;99515.94;4994164;28;20473;-89
2023/07/28 04:06:45;;;;;;;1.10;0.10;;;;;;;15.41;100.00;99521.28;4993713;28;20449;-88
2023/07/28 04:09:13;;;;;;;1.05;0.20;;;;;;;15.29;100.00;99513.78;4993864;28;20022;-89
2023/07/28 04:11:38;;;;;;;0.55;0.10;;;;;;;15.37;100.00;99514.72;4993678;28;20045;-89
2023/07/28 04:14:04;;;;;;;0.45;0.30;;;;;;;15.31;100.00;99517.06;4994268;28;20620;-89
2023/07/28 04:16:30;;;;;;;0.93;0.35;;;;;;;15.21;100.00;99517.06;4993453;28;20045;-89
2023/07/28 04:18:56;;;;;;;2.17;0.30;;;;;;;15.22;100.00;99525.72;4993792;28;20023;-89
2023/07/28 04:21:21;;;;;;;0.28;0.20;;;;;;;15.21;100.00;99522.28;4993349;28;20027;-89
2023/07/28 04:23:46;;;;;;;1.48;0.25;;;;;;;15.23;100.00;99522.97;4993612;28;20022;-89
2023/07/28 04:26:12;;;;;;;3.95;0.68;;;;;;;15.18;100.00;99522.56;4993286;28;20023;-89
2023/07/28 04:28:37;;;;;;;3.05;0.30;;;;;;;15.27;100.00;99528.72;4993775;28;20029;-89
2023/07/28 04:31:02;;;;;;;4.18;0.50;;;;;;;15.35;100.00;99524.44;4993308;28;20230;-89
2023/07/28 04:33:28;;;;;;;0.75;0.20;;;;;;;15.34;100.00;99522.81;4993410;28;20069;-89
2023/07/28 04:35:53;;;;;;;0.73;0.15;;;;;;;15.26;100.00;99520.06;4991657;28;20042;-89
2023/07/28 04:38:18;;;;;;;1.48;0.30;;;;;;;15.23;100.00;99519.56;4993512;28;20144;-89
2023/07/28 04:40:44;;;;;;;1.58;0.10;;;;;;;15.19;100.00;99519.00;4992987;28;20038;-89
2023/07/28 04:43:10;;;;;;;1.52;0.57;;;;;;;15.28;100.00;99522.53;4993397;28;20333;-89
2023/07/28 04:45:35;;;;;;;0.98;0.20;;;;;;;15.29;100.00;99517.22;4993127;28;20033;-89
2023/07/28 04:48:01;;;;;;;1.33;0.20;;;;;;;15.25;100.00;99515.84;4993191;28;20027;-89
2023/07/28 04:50:26;;;;;;;0.90;0.52;;;;;;;15.36;100.00;99515.69;4992856;28;20527;-89
2023/07/28 04:52:52;;;;;;;0.85;0.25;;;;;;;15.49;100.00;99514.56;4992675;28;20399;-89
2023/07/28 04:55:17;;;;;;;0.30;0.15;;;;;;;15.36;100.00;99520.03;4992593;28;20023;-90
2023/07/28 04:57:42;;;;;;;0.63;0.20;;;;;;;15.27;100.00;99515.72;4992975;28;20026;-89
2023/07/28 05:00:08;;;;;;;0.15;0.10;;;;;;;15.39;100.00;99519.78;4992665;28;20036;-89
2023/07/28 05:02:34;;;;;;;0.50;0.20;;;;;;;15.36;100.00;99515.69;4992891;28;20026;-89
2023/07/28 05:04:59;;;;;;;0.20;0.10;;;;;;;15.35;100.00;99516.63;4992482;28;20443;-90
2023/07/28 05:07:25;;;;;;;0.75;0.10;;;;;;;15.43;100.00;99513.31;4992845;28;20030;-90
2023/07/28 05:09:50;;;;;;;0.35;0.20;;;;;;;15.41;100.00;99515.25;4992630;28;20049;-89
2023/07/28 05:12:15;;;;;;;0.57;0.10;;;;;;;15.49;100.00;99512.78;4992868;28;20019;-89
2023/07/28 05:14:42;;;;;;;2.05;0.40;;;;;;;15.43;100.00;99517.72;4992431;28;20369;-89
2023/07/28 05:17:07;;;;;;;1.70;0.20;;;;;;;15.57;100.00;99517.25;4992849;28;20061;-89
2023/07/28 05:19:32;;;;;;;0.50;0.10;;;;;;;15.54;100.00;99512.34;4992733;28;20061;-89
2023/07/28 05:21:58;;;;;;;1.85;0.10;;;;;;;15.58;100.00;99511.91;4992467;28;20109;-89
2023/07/28 05:24:23;;;;;;;2.53;0.30;;;;;;;15.64;100.00;99515.72;4992553;28;20026;-89
2023/07/28 05:26:48;;;;;;;2.00;0.38;;;;;;;15.60;100.00;99527.38;4992254;28;20046;-89
2023/07/28 05:29:14;;;;;;;0.88;0.40;;;;;;;15.56;100.00;99521.66;4992636;28;20022;-89
2023/07/28 05:31:39;;;;;;;1.25;0.30;;;;;;;15.53;100.00;99521.09;4974890;28;20693;-89
2023/07/28 05:34:05;;;;;;;0.28;0.13;;;;;;;15.56;100.00;99521.66;4992517;28;20050;-89
2023/07/28 05:36:30;;;;;;;1.45;0.22;;;;;;;15.54;100.00;99518.34;4992067;28;20361;-89
2023/07/28 05:38:57;;;;;;;1.25;0.28;;;;;;;15.59;100.00;99523.94;4992466;28;20028;-89
2023/07/28 05:41:23;;;;;;;0.20;0.20;;;;;;;15.61;100.00;99524.63;4992086;28;20037;-89
2023/07/28 05:43:49;;;;;;;0.30;0.20;;;;;;;15.57;100.00;99522.44;4992295;28;20461;-89
2023/07/28 05:46:14;;;;;;;0.20;0.10;;;;;;;15.66;100.00;99529.41;4992058;28;20050;-89
2023/07/28 05:48:40;;;;;;;3.15;0.28;;;;;;;15.76;100.00;99532.81;4992434;28;20033;-89
2023/07/28 05:51:05;;;;;;;3.75;0.30;;;;;;;15.74;100.00;99529.53;4992105;28;20037;-89
2023/07/28 05:53:31;;;;;;;0.40;0.30;;;;;;;15.84;100.00;99525.09;4992451;28;20018;-89
2023/07/28 05:55:56;;;;;;;0.75;0.20;;;;;;;15.83;100.00;99523.47;4991835;28;20042;-89
2023/07/28 05:58:21;;;;;;;1.17;0.43;;;;;;;15.91;100.00;99524.53;4992323;28;20018;-89
2023/07/28 06:00:48;;;;;;;6.85;0.57;;;;;;;16.02;100.00;99529.53;4992164;28;20077;-89
2023/07/28 06:03:13;;;;;;;0.52;0.20;;;;;;;15.99;100.00;99532.41;4992232;28;20138;-89
2023/07/28 06:05:40;;;;;;;0.55;0.22;;;;;;;16.20;100.00;99535.59;4995811;28;20062;-94
2023/07/28 06:08:06;;;;;;;1.00;0.60;;;;;;;16.23;100.00;99534.47;4978644;28;20026;-89
2023/07/28 06:10:32;;;;;;;0.88;0.30;;;;;;;16.21;100.00;99539.81;4996130;28;20033;-89
2023/07/28 06:12:57;;;;;;;0.75;0.20;;;;;;;16.15;100.00;99534.41;4978566;28;20018;-91
2023/07/28 06:15:23;;;;;;;2.88;0.50;;;;;;;16.14;100.00;99533.59;4994529;28;20357;-90
2023/07/28 06:17:49;;;;;;;1.85;0.30;;;;;;;16.21;100.00;99534.63;4995880;28;20392;-90
2023/07/28 06:20:14;;;;;;;0.32;0.20;;;;;;;16.26;100.00;99531.56;4996029;28;20502;-89
2023/07/28 06:22:39;;;;;;;0.68;0.38;;;;;;;16.25;100.00;99537.75;4996134;28;20049;-89
2023/07/28 06:25:05;;;;;;;0.85;0.30;;;;;;;16.22;100.00;99536.28;4995827;28;20022;-89
2023/07/28 06:27:30;;;;;;;3.40;0.43;;;;;;;16.29;100.00;99533.06;4995905;28;20117;-90
2023/07/28 06:29:56;;;;;;;0.70;0.40;;;;;;;16.34;100.00;99523.03;4995729;28;20022;-90
2023/07/28 06:32:23;;;;;;;1.80;0.35;;;;;;;16.35;100.00;99527.28;4995701;28;20531;-91
2023/07/28 06:34:49;;;;;;;2.30;0.50;;;;;;;16.39;100.00;99533.84;4995740;28;20101;-93
2023/07/28 06:37:14;;;;;;;0.88;0.38;;;;;;;16.47;100.00;99536.53;4978199;28;20506;-91
2023/07/28 06:39:40;;;;;;;2.00;0.63;;;;;;;16.44;100.00;99531.63;4995470;28;20030;-91
2023/07/28 06:42:05;;;;;;;1.27;0.35;;;;;;;16.48;100.00;99527.72;4995585;28;20436;-91
2023/07/28 06:44:31;;;;;;;0.45;0.30;;;;;;;16.73;100.00;99535.75;4995147;28;20022;-92
2023/07/28 06:46:56;;;;;;;3.88;0.52;;;;;;;17.25;100.00;99538.47;4995320;28;20030;-92
2023/07/28 06:49:22;;;;;;;0.43;0.40;;;;;;;18.47;100.00;99538.19;4993550;28;20473;-91
2023/07/28 06:51:47;;;;;;;2.38;0.50;;;;;;;19.40;100.00;99534.41;4969531;28;20030;-90
2023/07/28 06:54:12;;;;;;;3.42;0.77;;;;;;;18.88;100.00;99543.47;4995615;28;20025;-91
2023/07/28 06:56:39;;;;;;;1.00;0.40;;;;;;;19.16;100.00;99541.31;4977347;28;20036;-90
2023/07/28 06:59:06;;;;;;;1.40;0.55;;;;;;;20.50;94.53;99545.72;5000247;28;20037;-91
2023/07/28 07:01:32;;;;;;;0.70;0.43;;;;;;;21.68;86.75;99543.56;4996628;28;20026;-94
2023/07/28 07:03:57;;;;;;;6.50;0.50;;;;;;;22.96;74.61;99550.81;4995374;28;20030;-94
2023/07/28 07:06:22;;;;;;;1.05;0.32;;;;;;;21.92;81.60;99558.22;5004861;28;20100;-95
2023/07/28 07:08:48;;;;;;;1.10;0.47;;;;;;;20.54;88.24;99559.31;4995466;28;20468;-90
2023/07/28 07:11:13;;;;;;;5.07;0.82;;;;;;;19.42;98.33;99569.91;4994973;28;20050;-91
2023/07/28 07:13:38;;;;;;;2.40;0.35;;;;;;;18.83;100.00;99563.25;4994888;28;20034;-90
2023/07/28 07:16:06;;;;;;;1.23;0.50;;;;;;;19.40;99.09;99565.81;4976312;28;20031;-91
2023/07/28 07:18:31;;;;;;;2.67;0.82;;;;;;;19.15;100.00;99567.66;4994067;28;20026;-91
2023/07/28 07:21:01;;;;;;;5.15;0.63;;;;;;;18.87;100.00;99569.78;4994934;28;20381;-90
2023/07/28 07:23:26;;;;;;;0.88;0.50;;;;;;;18.67;100.00;99564.00;4994672;28;20152;-90
2023/07/28 07:25:52;;;;;;;3.67;0.70;;;;;;;19.27;100.00;99560.28;4994723;28;20109;-91
2023/07/28 07:28:17;;;;;;;1.55;0.82;;;;;;;19.23;100.00;99565.03;4994856;28;20105;-92
2023/07/28 07:30:42;;;;;;;3.47;0.85;;;;;;;19.49;100.00;99567.44;4994658;28;20113;-90
2023/07/28 07:33:08;;;;;;;1.38;0.70;;;;;;;19.51;98.67;99562.84;4994520;28;20022;-90
2023/07/28 07:35:37;;;;;;;1.67;0.60;;;;;;;19.57;99.74;99566.59;4993845;28;20029;-91
2023/07/28 07:38:03;;;;;;;0.80;0.45;;;;;;;20.03;94.50;99566.81;4990814;28;20512;-91
2023/07/28 07:40:28;;;;;;;1.55;0.50;;;;;;;20.34;88.15;99574.69;4994438;28;20023;-92
2023/07/28 07:42:54;;;;;;;2.25;0.50;;;;;;;19.94;86.37;99568.63;4994378;28;20452;-91
2023/07/28 07:45:19;;;;;;;1.55;0.50;;;;;;;19.72;89.72;99566.75;4993768;28;20044;-91
2023/07/28 07:47:44;;;;;;;2.25;0.90;;;;;;;19.55;94.48;99572.00;4994386;28;20038;-91
2023/07/28 07:50:11;;;;;;;1.85;0.63;;;;;;;20.15;90.27;99569.84;4975825;28;20027;-91
2023/07/28 07:52:38;;;;;;;3.38;0.60;;;;;;;21.33;80.87;99577.38;4994090;28;20036;-91
2023/07/28 07:55:04;;;;;;;4.15;0.70;;;;;;;22.86;72.65;99576.66;4994135;28;20033;-91
2023/07/28 07:57:30;;;;;;;1.65;0.60;;;;;;;22.27;71.51;99568.97;4993714;28;20034;-90
2023/07/28 07:59:57;;;;;;;2.28;1.23;;;;;;;21.96;74.85;99581.31;4986855;28;20054;-90
2023/07/28 08:02:23;;;;;;;2.88;0.40;;;;;;;21.64;77.93;99582.50;4993769;28;20124;-91
2023/07/28 08:04:48;;;;;;;2.88;0.40;;;;;;;21.64;75.39;99577.25;4992770;28;20548;-91
2023/07/28 08:07:15;;;;;;;1.70;0.50;;;;;;;21.84;76.15;99584.59;4993697;28;20481;-91
2023/07/28 08:09:41;;;;;;;1.98;0.60;;;;;;;22.54;72.48;99578.78;4993775;28;20053;-92
2023/07/28 08:12:08;;;;;;;3.50;1.27;;;;;;;21.98;71.31;99587.22;4993596;28;20485;-91
2023/07/28 08:14:34;;;;;;;1.63;0.40;;;;;;;21.83;72.98;99585.59;4992746;28;20030;-92
2023/07/28 08:16:59;;;;;;;2.55;0.63;;;;;;;22.25;69.73;99586.75;4975351;28;20034;-92
2023/07/28 08:19:24;;;;;;;2.85;0.43;;;;;;;22.73;67.81;99592.31;4992846;28;20476;-92
2023/07/28 08:21:50;;;;;;;1.58;0.50;;;;;;;23.03;66.97;99599.09;4993880;28;20023;-92
2023/07/28 08:24:16;;;;;;;2.05;0.70;;;;;;;23.86;64.70;99594.00;4993469;28;20087;-93
2023/07/28 08:26:41;;;;;;;0.68;0.40;;;;;;;24.11;65.32;99593.50;4975591;28;20225;-93
2023/07/28 08:29:08;;;;;;;2.22;0.65;;;;;;;23.69;64.46;99592.66;4975032;28;20293;-92
2023/07/28 08:31:33;;;;;;;0.93;0.60;;;;;;;24.04;63.02;99587.38;4993538;28;20690;-93
2023/07/28 08:33:58;;;;;;;0.50;0.40;;;;;;;23.92;62.00;99587.97;4975241;28;20062;-93
2023/07/28 08:36:24;;;;;;;2.13;0.52;;;;;;;24.10;60.42;99595.31;4993319;28;20037;-93
2023/07/28 08:38:49;;;;;;;1.92;0.63;;;;;;;24.53;59.36;99594.25;4993357;28;20022;-93
2023/07/28 08:41:15;;;;;;;0.60;0.40;;;;;;;24.77;57.85;99584.97;4993871;28;20026;-93
2023/07/28 08:43:40;;;;;;;3.35;0.50;;;;;;;24.28;58.63;99596.59;4993084;28;20030;-93
2023/07/28 08:46:06;;;;;;;1.48;0.47;;;;;;;24.29;57.95;99599.06;4975695;28;20027;-94
2023/07/28 08:48:31;;;;;;;1.40;0.40;;;;;;;24.44;55.58;99587.53;4974945;28;20030;-93
2023/07/28 08:50:56;;;;;;;1.85;0.30;;;;;;;24.30;60.14;99599.88;4993255;28;20057;-94
2023/07/28 08:53:22;;;;;;;0.57;0.30;;;;;;;24.76;56.56;99605.28;4993240;28;20085;-93
2023/07/28 08:55:47;;;;;;;2.05;0.22;;;;;;;24.62;56.51;99603.63;4992952;28;20026;-93
2023/07/28 08:58:18;;;;;;;0.95;0.20;;;;;;;24.41;54.59;99606.38;4993171;28;20062;-92
2023/07/28 09:00:44;;;;;;;1.33;0.55;;;;;;;24.48;55.73;99601.97;4992860;28;20404;-93
2023/07/28 09:03:10;;;;;;;1.15;0.35;;;;;;;24.29;55.99;99606.97;4992274;28;20046;-92
2023/07/28 09:05:35;;;;;;;0.28;0.10;;;;;;;23.59;57.56;99602.75;4992979;28;20045;-92
2023/07/28 09:08:01;;;;;;;2.83;0.30;;;;;;;23.74;57.63;99594.75;4991570;28;20026;-93
2023/07/28 09:10:41;;;;;;;1.73;0.35;;;;;;;23.74;57.94;99595.56;4992602;28;20033;-92
2023/07/28 09:13:10;;;;;;;0.20;0.20;;;;;;;23.88;56.92;99605.16;4992884;28;20130;-92
2023/07/28 09:15:35;;;;;;;0.85;0.20;;;;;;;24.30;55.46;99608.56;4992661;28;20027;-93
2023/07/28 09:18:01;;;;;;;0.47;0.28;;;;;;;24.29;54.78;99609.59;4991977;28;20034;-93
2023/07/28 09:20:37;;;;;;;1.30;0.82;;;;;;;24.11;56.10;99610.13;4992619;28;20030;-92
2023/07/28 09:23:03;;;;;;;1.02;0.38;;;;;;;24.42;55.94;99603.53;4992500;28;20023;-92
2023/07/28 09:25:32;;;;;;;1.02;0.45;;;;;;;24.86;55.15;99612.00;4993111;28;20069;-92
2023/07/28 09:27:58;;;;;;;2.33;0.35;;;;;;;24.94;55.83;99611.78;4975629;28;20076;-92
2023/07/28 09:30:25;;;;;;;1.58;0.30;;;;;;;25.11;54.27;99614.84;4992217;28;20030;-93
2023/07/28 09:32:52;;;;;;;0.38;0.13;;;;;;;25.36;54.28;99617.69;4991921;28;20030;-92
2023/07/28 09:35:18;;;;;;;1.08;0.40;;;;;;;25.57;52.42;99617.47;4992568;28;20101;-92
2023/07/28 09:37:47;;;;;;;0.52;0.30;;;;;;;25.66;51.52;99612.78;4992602;28;20449;-92
2023/07/28 09:40:14;;;;;;;4.10;0.30;;;;;;;25.62;50.98;99620.31;4992296;28;20044;-93
2023/07/28 09:42:41;;;;;;;1.08;0.20;;;;;;;25.24;51.26;99622.81;4992427;28;20026;-92
2023/07/28 09:45:08;;;;;;;0.50;0.20;;;;;;;24.85;52.65;99613.00;4992389;28;20030;-93
2023/07/28 09:47:37;;;;;;;0.60;0.20;;;;;;;24.98;53.82;99623.56;4991646;28;20041;-92
2023/07/28 09:50:05;;;;;;;0.85;0.20;;;;;;;25.13;52.46;99610.97;4992210;28;20053;-92
2023/07/28 09:52:35;;;;;;;0.22;0.20;;;;;;;25.43;51.35;99602.66;4991075;28;20072;-92
2023/07/28 09:55:06;;;;;;;0.63;0.20;;;;;;;25.34;50.78;99609.19;4974896;28;20053;-92
2023/07/28 09:57:36;;;;;;;0.40;0.10;;;;;;;25.25;50.46;99619.13;4992212;28;20054;-93
2023/07/28 10:00:03;;;;;;;0.50;0.30;;;;;;;24.99;50.48;99604.91;4992071;28;20034;-93
2023/07/28 10:02:29;;;;;;;1.10;0.30;;;;;;;25.13;52.97;99610.97;4991703;28;20023;-92
2023/07/28 10:04:55;;;;;;;1.80;0.32;;;;;;;25.12;51.25;99613.84;4992084;28;20027;-93
2023/07/28 10:07:21;;;;;;;1.95;0.20;;;;;;;25.52;51.16;99604.06;4992447;28;20539;-92
2023/07/28 10:09:47;;;;;;;2.63;0.70;;;;;;;25.45;52.18;99595.34;4991967;28;20030;-93
2023/07/28 10:12:24;;;;;;;2.00;0.40;;;;;;;25.88;50.32;99610.72;4992141;28;20109;-93
2023/07/28 10:15:01;;;;;;;0.32;0.13;;;;;;;25.42;51.60;99606.31;4992073;28;20040;-93
2023/07/28 10:17:34;;;;;;;0.65;0.20;;;;;;;26.34;50.15;99607.09;4973946;28;20041;-93
2023/07/28 10:20:08;;;;;;;0.98;0.40;;;;;;;26.15;49.56;99600.88;4974513;28;20031;-92
2023/07/28 10:22:44;;;;;;;0.50;0.20;;;;;;;26.05;49.64;99611.09;4974948;28;20541;-92
2023/07/28 10:25:10;;;;;;;1.75;0.40;;;;;;;25.33;51.79;99604.91;4991958;28;20037;-93
2023/07/28 10:27:45;;;;;;;0.45;0.20;;;;;;;24.66;52.91;99602.22;4992614;28;20037;-92
2023/07/28 10:30:15;;;;;;;0.63;0.35;;;;;;;24.54;52.75;99606.47;4991800;28;20388;-93
2023/07/28 10:32:43;;;;;;;0.73;0.30;;;;;;;23.98;53.93;99606.63;4991459;28;20058;-93
2023/07/28 10:35:17;;;;;;;1.65;0.30;;;;;;;23.88;56.02;99596.44;4991996;28;20041;-93
2023/07/28 10:37:46;;;;;;;1.02;0.30;;;;;;;24.39;53.27;99603.16;4974312;28;20443;-92
2023/07/28 10:40:26;;;;;;;0.25;0.20;;;;;;;24.61;53.29;99599.38;4974296;28;20037;-93
2023/07/28 10:42:52;;;;;;;0.43;0.20;;;;;;;24.73;52.51;99603.03;4991939;28;20057;-92
2023/07/28 10:45:18;;;;;;;0.85;0.40;;;;;;;24.66;53.16;99596.13;4991876;28;20053;-94
2023/07/28 10:47:45;;;;;;;0.45;0.20;;;;;;;24.73;51.84;99599.59;4991427;28;20041;-92
2023/07/28 10:50:12;;;;;;;2.05;0.40;;;;;;;24.56;53.14;99593.88;4993613;28;20113;-93
2023/07/28 10:52:41;;;;;;;0.60;0.30;;;;;;;24.57;54.22;99595.50;4995579;28;20023;-93
2023/07/28 10:55:16;;;;;;;1.08;0.30;;;;;;;24.51;53.24;99586.56;4995357;28;20484;-93
2023/07/28 10:57:43;;;;;;;3.67;0.30;;;;;;;24.08;55.08;99578.88;4978226;28;20026;-92
2023/07/28 11:00:11;;;;;;;4.50;0.47;;;;;;;24.14;54.75;99578.13;4995195;28;20469;-92
2023/07/28 11:02:48;;;;;;;2.85;0.40;;;;;;;23.62;55.25;99568.91;4977112;28;20037;-93
2023/07/28 11:05:21;;;;;;;1.13;0.52;;;;;;;23.59;55.47;99560.59;4977809;28;20057;-93
2023/07/28 11:07:48;;;;;;;0.50;0.30;;;;;;;24.99;53.08;99572.38;4978052;28;20383;-92
2023/07/28 11:10:14;;;;;;;0.52;0.30;;;;;;;25.14;52.01;99575.66;4977870;28;20037;-93
2023/07/28 11:12:44;;;;;;;1.02;0.50;;;;;;;25.46;52.45;99567.09;4995050;28;20034;-93
2023/07/28 11:15:11;;;;;;;0.80;0.38;;;;;;;25.41;51.90;99580.94;4995064;28;20031;-93
2023/07/28 11:17:40;;;;;;;1.23;0.50;;;;;;;24.97;52.43;99575.25;4994246;28;20034;-93
2023/07/28 11:20:19;;;;;;;2.00;0.40;;;;;;;25.11;52.23;99576.03;4994583;28;20442;-93
2023/07/28 11:22:46;;;;;;;2.30;0.50;;;;;;;24.55;52.59;99576.41;4994751;28;20480;-93
2023/07/28 11:25:12;;;;;;;1.60;0.60;;;;;;;23.93;54.21;99579.03;4994599;28;20026;-93